createdAt,value
2017-08-08T00:00:38.414Z,0
2017-08-08T00:01:38.403Z,0
2017-08-08T00:02:38.074Z,0
2017-08-08T00:03:38.387Z,0
2017-08-08T00:04:38.355Z,0
2017-08-08T00:05:38.398Z,0
2017-08-08T00:06:38.347Z,0
2017-08-08T00:07:38.375Z,0
2017-08-08T00:08:38.369Z,0
2017-08-08T00:09:38.365Z,0
2017-08-08T00:10:38.328Z,0
2017-08-08T00:11:38.030Z,0
2017-08-08T00:12:38.342Z,0
2017-08-08T00:13:38.032Z,0
2017-08-08T00:14:38.306Z,0
2017-08-08T00:15:38.328Z,0
2017-08-08T00:16:38.021Z,0
2017-08-08T00:17:38.336Z,0
2017-08-08T00:18:38.298Z,0
2017-08-08T00:19:38.003Z,0
2017-08-08T00:20:38.307Z,0
2017-08-08T00:21:38.282Z,0
2017-08-08T00:22:38.276Z,0
2017-08-08T00:23:38.002Z,0
2017-08-08T00:24:38.269Z,0
2017-08-08T00:25:37.968Z,0
2017-08-08T00:26:38.250Z,0
2017-08-08T00:27:38.275Z,0
2017-08-08T00:28:38.263Z,0
2017-08-08T00:29:38.255Z,0
2017-08-08T00:30:38.236Z,0
2017-08-08T00:31:38.249Z,0
2017-08-08T00:32:38.487Z,0
2017-08-08T00:33:37.931Z,0
2017-08-08T00:34:37.926Z,0
2017-08-08T00:35:38.228Z,0
2017-08-08T00:36:37.892Z,0
2017-08-08T00:37:38.229Z,0
2017-08-08T00:38:37.900Z,0
2017-08-08T00:39:37.913Z,0
2017-08-08T00:40:37.589Z,0
2017-08-08T00:41:37.570Z,0
2017-08-08T00:42:37.891Z,0
2017-08-08T00:43:37.882Z,0
2017-08-08T00:44:38.197Z,0
2017-08-08T00:45:38.175Z,0
2017-08-08T00:46:37.868Z,0
2017-08-08T00:47:37.549Z,0
2017-08-08T00:48:37.895Z,0
2017-08-08T00:49:37.849Z,0
2017-08-08T00:50:38.122Z,0
2017-08-08T00:51:37.533Z,0
2017-08-08T00:52:38.112Z,0
2017-08-08T00:53:37.836Z,0
2017-08-08T00:54:38.115Z,0
2017-08-08T00:55:38.163Z,0
2017-08-08T00:56:37.498Z,0
2017-08-08T00:57:37.496Z,0
2017-08-08T00:58:37.504Z,0
2017-08-08T00:59:37.794Z,0
2017-08-08T01:00:37.490Z,0
2017-08-08T01:01:38.102Z,0
2017-08-08T01:02:38.094Z,0
2017-08-08T01:03:37.787Z,0
2017-08-08T01:04:38.073Z,0
2017-08-08T01:05:38.086Z,0
2017-08-08T01:06:38.068Z,0
2017-08-08T01:07:38.072Z,0
2017-08-08T01:08:38.049Z,0
2017-08-08T01:09:37.740Z,0
2017-08-08T01:10:37.742Z,0
2017-08-08T01:11:38.057Z,0
2017-08-08T01:12:38.034Z,0
2017-08-08T01:13:38.060Z,0
2017-08-08T01:14:38.031Z,0
2017-08-08T01:15:37.721Z,0
2017-08-08T01:16:38.011Z,0
2017-08-08T01:17:37.724Z,0
2017-08-08T01:18:38.028Z,0
2017-08-08T01:19:38.019Z,0
2017-08-08T01:20:37.997Z,0
2017-08-08T01:21:37.985Z,0
2017-08-08T01:22:37.699Z,0
2017-08-08T01:23:37.969Z,0
2017-08-08T01:24:37.666Z,0
2017-08-08T01:25:37.971Z,0
2017-08-08T01:26:37.380Z,0
2017-08-08T01:27:37.651Z,0
2017-08-08T01:28:37.960Z,0
2017-08-08T01:29:37.632Z,0
2017-08-08T01:30:37.639Z,0
2017-08-08T01:31:37.939Z,0
2017-08-08T01:32:37.944Z,0
2017-08-08T01:34:37.942Z,0
2017-08-08T01:35:37.933Z,0
2017-08-08T01:36:37.929Z,0
2017-08-08T01:37:37.914Z,0
2017-08-08T01:38:37.560Z,0
2017-08-08T01:39:37.606Z,0
2017-08-08T01:40:37.595Z,0
2017-08-08T01:41:37.905Z,0
2017-08-08T01:42:37.899Z,0
2017-08-08T01:43:37.887Z,0
2017-08-08T01:44:37.863Z,0
2017-08-08T01:45:37.895Z,0
2017-08-08T01:46:37.857Z,0
2017-08-08T01:47:37.870Z,0
2017-08-08T01:48:37.853Z,0
2017-08-08T01:49:37.849Z,0
2017-08-08T01:50:37.835Z,0
2017-08-08T01:51:37.825Z,0
2017-08-08T01:52:37.527Z,0
2017-08-08T01:53:37.542Z,0
2017-08-08T01:54:37.520Z,0
2017-08-08T01:55:37.806Z,0
2017-08-08T01:56:37.833Z,0
2017-08-08T01:57:37.521Z,0
2017-08-08T01:58:37.482Z,0
2017-08-08T01:59:37.799Z,0
2017-08-08T02:00:37.792Z,0
2017-08-08T02:01:37.794Z,0
2017-08-08T02:02:37.777Z,0
2017-08-08T02:03:37.782Z,0
2017-08-08T02:04:37.758Z,0
2017-08-08T02:05:37.476Z,0
2017-08-08T02:06:37.437Z,0
2017-08-08T02:07:37.451Z,0
2017-08-08T02:08:37.758Z,0
2017-08-08T02:09:37.439Z,0
2017-08-08T02:10:37.738Z,0
2017-08-08T02:11:37.440Z,0
2017-08-08T02:12:37.413Z,0
2017-08-08T02:13:37.745Z,0
2017-08-08T02:14:37.401Z,0
2017-08-08T02:15:37.418Z,0
2017-08-08T02:16:37.400Z,0
2017-08-08T02:17:37.399Z,0
2017-08-08T02:18:37.695Z,0
2017-08-08T02:19:37.714Z,0
2017-08-08T02:20:37.708Z,0
2017-08-08T02:21:37.064Z,0
2017-08-08T02:22:37.362Z,0
2017-08-08T02:23:37.688Z,0
2017-08-08T02:24:37.669Z,0
2017-08-08T02:25:37.660Z,0
2017-08-08T02:26:37.344Z,0
2017-08-08T02:27:37.681Z,0
2017-08-08T02:28:37.662Z,0
2017-08-08T02:29:37.674Z,0
2017-08-08T02:30:37.640Z,0
2017-08-08T02:31:37.663Z,0
2017-08-08T02:32:37.595Z,0
2017-08-08T02:33:37.309Z,0
2017-08-08T02:34:37.620Z,0
2017-08-08T02:35:37.304Z,0
2017-08-08T02:36:37.634Z,0
2017-08-08T02:37:36.982Z,0
2017-08-08T02:38:37.580Z,0
2017-08-08T02:39:37.294Z,0
2017-08-08T02:40:37.006Z,0
2017-08-08T02:41:36.968Z,0
2017-08-08T02:42:37.279Z,0
2017-08-08T02:43:37.542Z,0
2017-08-08T02:44:37.270Z,0
2017-08-08T02:45:37.541Z,0
2017-08-08T02:46:36.933Z,0
2017-08-08T02:47:37.553Z,0
2017-08-08T02:48:37.550Z,0
2017-08-08T02:49:37.542Z,0
2017-08-08T02:50:36.912Z,0
2017-08-08T02:51:37.246Z,0
2017-08-08T02:52:37.546Z,0
2017-08-08T02:53:37.542Z,0
2017-08-08T02:54:37.202Z,0
2017-08-08T02:55:37.186Z,0
2017-08-08T02:56:37.501Z,0
2017-08-08T02:57:37.490Z,0
2017-08-08T02:58:37.515Z,0
2017-08-08T02:59:37.199Z,0
2017-08-08T03:00:37.506Z,0
2017-08-08T03:01:37.446Z,0
2017-08-08T03:02:37.174Z,0
2017-08-08T03:03:37.457Z,0
2017-08-08T03:04:37.469Z,0
2017-08-08T03:05:37.467Z,0
2017-08-08T03:06:37.448Z,0
2017-08-08T03:07:37.452Z,0
2017-08-08T03:08:37.439Z,0
2017-08-08T03:09:37.417Z,0
2017-08-08T03:10:37.437Z,0
2017-08-08T03:11:37.442Z,0
2017-08-08T03:12:37.437Z,0
2017-08-08T03:13:37.414Z,0
2017-08-08T03:14:37.406Z,0
2017-08-08T03:15:37.390Z,0
2017-08-08T03:16:37.399Z,0
2017-08-08T03:17:37.374Z,0
2017-08-08T03:18:37.393Z,0
2017-08-08T03:19:37.373Z,0
2017-08-08T03:20:37.402Z,0
2017-08-08T03:21:37.376Z,0
2017-08-08T03:22:37.384Z,0
2017-08-08T03:23:37.058Z,0
2017-08-08T03:24:37.355Z,5
2017-08-08T03:25:37.356Z,5
2017-08-08T03:26:37.354Z,5
2017-08-08T03:27:37.349Z,5
2017-08-08T03:28:37.336Z,5
2017-08-08T03:29:38.784Z,5
2017-08-08T03:30:37.324Z,5
2017-08-08T03:31:37.319Z,5
2017-08-08T03:32:37.009Z,5
2017-08-08T03:33:37.311Z,10
2017-08-08T03:34:36.992Z,10
2017-08-08T03:35:37.313Z,10
2017-08-08T03:36:37.276Z,10
2017-08-08T03:37:37.292Z,10
2017-08-08T03:38:37.289Z,10
2017-08-08T03:39:36.989Z,15
2017-08-08T03:40:37.260Z,15
2017-08-08T03:41:36.940Z,15
2017-08-08T03:42:36.953Z,15
2017-08-08T03:43:37.272Z,20
2017-08-08T03:44:36.939Z,20
2017-08-08T03:45:36.941Z,20
2017-08-08T03:46:37.223Z,20
2017-08-08T03:47:36.930Z,25
2017-08-08T03:48:36.930Z,25
2017-08-08T03:49:37.241Z,25
2017-08-08T03:50:37.214Z,30
2017-08-08T03:51:36.901Z,30
2017-08-08T03:52:37.213Z,30
2017-08-08T03:53:37.206Z,30
2017-08-08T03:54:37.205Z,30
2017-08-08T03:55:37.189Z,35
2017-08-08T03:56:37.178Z,35
2017-08-08T03:57:36.873Z,40
2017-08-08T03:58:36.872Z,40
2017-08-08T03:59:36.868Z,45
2017-08-08T04:00:37.152Z,45
2017-08-08T04:01:37.148Z,45
2017-08-08T04:02:37.128Z,50
2017-08-08T04:03:36.834Z,50
2017-08-08T04:04:36.837Z,55
2017-08-08T04:05:36.837Z,55
2017-08-08T04:06:37.147Z,55
2017-08-08T04:07:37.129Z,55
2017-08-08T04:08:37.159Z,60
2017-08-08T04:09:37.121Z,65
2017-08-08T04:10:37.131Z,70
2017-08-08T04:11:37.098Z,75
2017-08-08T04:12:37.131Z,80
2017-08-08T04:13:37.116Z,80
2017-08-08T04:14:36.787Z,75
2017-08-08T04:15:37.102Z,70
2017-08-08T04:16:37.066Z,70
2017-08-08T04:17:37.079Z,70
2017-08-08T04:18:37.056Z,80
2017-08-08T04:19:37.080Z,90
2017-08-08T04:20:37.065Z,110
2017-08-08T04:21:37.068Z,120
2017-08-08T04:22:36.737Z,125
2017-08-08T04:23:37.062Z,140
2017-08-08T04:24:37.028Z,155
2017-08-08T04:25:37.042Z,155
2017-08-08T04:26:37.051Z,160
2017-08-08T04:27:37.050Z,170
2017-08-08T04:28:37.031Z,170
2017-08-08T04:29:37.047Z,175
2017-08-08T04:30:37.024Z,185
2017-08-08T04:31:37.044Z,190
2017-08-08T04:32:37.001Z,195
2017-08-08T04:33:37.007Z,195
2017-08-08T04:34:37.021Z,210
2017-08-08T04:35:37.023Z,210
2017-08-08T04:36:36.692Z,215
2017-08-08T04:37:37.038Z,220
2017-08-08T04:38:36.983Z,225
2017-08-08T04:39:37.002Z,235
2017-08-08T04:40:36.680Z,240
2017-08-08T04:41:36.681Z,245
2017-08-08T04:42:36.997Z,245
2017-08-08T04:43:36.999Z,250
2017-08-08T04:44:36.681Z,260
2017-08-08T04:45:36.689Z,270
2017-08-08T04:46:36.676Z,270
2017-08-08T04:47:36.972Z,275
2017-08-08T04:48:37.001Z,275
2017-08-08T04:49:36.670Z,280
2017-08-08T04:50:36.691Z,280
2017-08-08T04:51:36.659Z,285
2017-08-08T04:52:36.919Z,285
2017-08-08T04:53:36.668Z,250
2017-08-08T04:54:37.018Z,245
2017-08-08T04:55:36.679Z,275
2017-08-08T04:56:36.685Z,285
2017-08-08T04:57:37.012Z,280
2017-08-08T04:58:36.684Z,295
2017-08-08T04:59:37.003Z,305
2017-08-08T05:00:36.705Z,300
2017-08-08T05:01:37.032Z,280
2017-08-08T05:02:36.993Z,250
2017-08-08T05:03:37.023Z,265
2017-08-08T05:04:36.725Z,305
2017-08-08T05:05:37.024Z,375
2017-08-08T05:06:37.047Z,385
2017-08-08T05:07:36.720Z,395
2017-08-08T05:08:37.038Z,355
2017-08-08T05:09:36.709Z,375
2017-08-08T05:10:36.733Z,395
2017-08-08T05:11:36.716Z,425
2017-08-08T05:12:36.747Z,395
2017-08-08T05:13:37.049Z,450
2017-08-08T05:14:37.070Z,465
2017-08-08T05:15:37.088Z,470
2017-08-08T05:16:36.736Z,470
2017-08-08T05:17:37.080Z,475
2017-08-08T05:18:37.100Z,480
2017-08-08T05:19:37.104Z,490
2017-08-08T05:20:36.782Z,500
2017-08-08T05:21:36.820Z,510
2017-08-08T05:22:37.116Z,520
2017-08-08T05:23:37.073Z,530
2017-08-08T05:24:36.796Z,535
2017-08-08T05:25:36.795Z,530
2017-08-08T05:26:36.819Z,535
2017-08-08T05:27:36.809Z,535
2017-08-08T05:28:37.175Z,525
2017-08-08T05:29:36.811Z,520
2017-08-08T05:30:36.856Z,550
2017-08-08T05:31:36.852Z,555
2017-08-08T05:32:37.172Z,580
2017-08-08T05:33:37.162Z,555
2017-08-08T05:34:37.186Z,580
2017-08-08T05:35:36.885Z,585
2017-08-08T05:36:37.172Z,585
2017-08-08T05:37:37.176Z,590
2017-08-08T05:38:37.194Z,590
2017-08-08T05:39:37.226Z,585
2017-08-08T05:40:37.218Z,600
2017-08-08T05:41:36.941Z,605
2017-08-08T05:42:37.241Z,610
2017-08-08T05:43:36.948Z,610
2017-08-08T05:44:36.929Z,610
2017-08-08T05:45:37.261Z,625
2017-08-08T05:46:36.956Z,650
2017-08-08T05:47:36.983Z,675
2017-08-08T05:48:37.286Z,690
2017-08-08T05:49:36.991Z,705
2017-08-08T05:50:37.318Z,725
2017-08-08T05:51:37.022Z,705
2017-08-08T05:52:37.008Z,720
2017-08-08T05:53:37.330Z,710
2017-08-08T05:54:37.020Z,755
2017-08-08T05:55:37.056Z,770
2017-08-08T05:56:37.349Z,750
2017-08-08T05:57:37.371Z,760
2017-08-08T05:58:37.373Z,725
2017-08-08T05:59:37.074Z,730
2017-08-08T06:00:37.077Z,715
2017-08-08T06:01:37.401Z,655
2017-08-08T06:02:37.405Z,685
2017-08-08T06:03:37.424Z,730
2017-08-08T06:04:37.433Z,775
2017-08-08T06:05:37.443Z,785
2017-08-08T06:06:37.123Z,805
2017-08-08T06:07:37.127Z,820
2017-08-08T06:08:37.485Z,835
2017-08-08T06:09:37.483Z,865
2017-08-08T06:10:37.177Z,880
2017-08-08T06:11:37.479Z,890
2017-08-08T06:12:37.206Z,735
2017-08-08T06:13:37.507Z,955
2017-08-08T06:14:37.495Z,965
2017-08-08T06:15:37.540Z,860
2017-08-08T06:16:38.959Z,720
2017-08-08T06:17:37.548Z,720
2017-08-08T06:18:37.546Z,720
2017-08-08T06:19:37.275Z,685
2017-08-08T06:20:37.279Z,730
2017-08-08T06:21:37.575Z,700
2017-08-08T06:22:37.285Z,695
2017-08-08T06:23:37.270Z,650
2017-08-08T06:24:37.305Z,800
2017-08-08T06:25:37.618Z,865
2017-08-08T06:26:37.625Z,900
2017-08-08T06:27:37.618Z,930
2017-08-08T06:28:37.663Z,940
2017-08-08T06:29:37.647Z,975
2017-08-08T06:30:37.603Z,1000
2017-08-08T06:31:37.364Z,915
2017-08-08T06:32:37.683Z,725
2017-08-08T06:33:37.678Z,785
2017-08-08T06:34:37.715Z,870
2017-08-08T06:35:37.694Z,920
2017-08-08T06:36:37.407Z,935
2017-08-08T06:37:37.724Z,880
2017-08-08T06:38:37.729Z,910
2017-08-08T06:39:37.748Z,900
2017-08-08T06:40:37.751Z,825
2017-08-08T06:41:37.752Z,805
2017-08-08T06:42:37.787Z,800
2017-08-08T06:43:37.764Z,810
2017-08-08T06:44:37.786Z,830
2017-08-08T06:45:37.785Z,960
2017-08-08T06:46:37.816Z,975
2017-08-08T06:47:37.847Z,965
2017-08-08T06:48:37.528Z,975
2017-08-08T06:49:37.832Z,1030
2017-08-08T06:50:37.526Z,1040
2017-08-08T06:51:37.531Z,1090
2017-08-08T06:52:37.552Z,1165
2017-08-08T06:53:37.552Z,1110
2017-08-08T06:54:37.878Z,1175
2017-08-08T06:55:37.893Z,1205
2017-08-08T06:56:37.574Z,1215
2017-08-08T06:57:37.908Z,1200
2017-08-08T06:58:37.899Z,1170
2017-08-08T06:59:37.940Z,1155
2017-08-08T07:00:37.923Z,1175
2017-08-08T07:01:37.950Z,1180
2017-08-08T07:02:37.315Z,1105
2017-08-08T07:03:37.973Z,1230
2017-08-08T07:05:38.182Z,1535
2017-08-08T07:06:41.385Z,1735
2017-08-08T07:07:37.990Z,1785
2017-08-08T07:08:37.686Z,1815
2017-08-08T07:09:38.003Z,1755
2017-08-08T07:10:37.705Z,1710
2017-08-08T07:11:38.052Z,1710
2017-08-08T07:12:38.066Z,1700
2017-08-08T07:13:38.078Z,1695
2017-08-08T07:14:38.096Z,1565
2017-08-08T07:15:38.053Z,1710
2017-08-08T07:16:38.088Z,1620
2017-08-08T07:17:38.082Z,1620
2017-08-08T07:18:38.116Z,1580
2017-08-08T07:19:37.505Z,1670
2017-08-08T07:20:38.125Z,1640
2017-08-08T07:21:37.836Z,1645
2017-08-08T07:22:37.512Z,1725
2017-08-08T07:23:38.164Z,1710
2017-08-08T07:24:38.169Z,1700
2017-08-08T07:25:38.196Z,1660
2017-08-08T07:26:38.187Z,1590
2017-08-08T07:27:38.217Z,1605
2017-08-08T07:28:37.918Z,1655
2017-08-08T07:29:37.907Z,1655
2017-08-08T07:30:38.241Z,1685
2017-08-08T07:31:37.955Z,1620
2017-08-08T07:32:37.965Z,1545
2017-08-08T07:33:38.291Z,1510
2017-08-08T07:34:38.283Z,1520
2017-08-08T07:35:38.301Z,1505
2017-08-08T07:36:37.999Z,1520
2017-08-08T07:37:38.337Z,1505
2017-08-08T07:38:38.369Z,1580
2017-08-08T07:39:38.420Z,1610
2017-08-08T07:40:38.036Z,1510
2017-08-08T07:41:38.070Z,1655
2017-08-08T07:42:38.394Z,1710
2017-08-08T07:43:38.425Z,1740
2017-08-08T07:44:38.421Z,1745
2017-08-08T07:45:38.435Z,1855
2017-08-08T07:46:38.446Z,1945
2017-08-08T07:47:38.139Z,1955
2017-08-08T07:48:38.158Z,1870
2017-08-08T07:49:38.483Z,1815
2017-08-08T07:50:38.496Z,1845
2017-08-08T07:51:38.512Z,1615
2017-08-08T07:52:38.238Z,1465
2017-08-08T07:53:38.512Z,1860
2017-08-08T07:54:38.232Z,2195
2017-08-08T07:55:38.247Z,2580
2017-08-08T07:56:38.599Z,2685
2017-08-08T07:57:38.260Z,2705
2017-08-08T07:58:38.599Z,2745
2017-08-08T07:59:38.305Z,2785
2017-08-08T08:00:38.336Z,2795
2017-08-08T08:01:38.625Z,2775
2017-08-08T08:02:38.347Z,2790
2017-08-08T08:03:38.335Z,2810
2017-08-08T08:04:38.384Z,2750
2017-08-08T08:05:38.395Z,2800
2017-08-08T08:06:38.722Z,2730
2017-08-08T08:07:38.420Z,2705
2017-08-08T08:08:38.768Z,2725
2017-08-08T08:09:38.432Z,2340
2017-08-08T08:10:38.795Z,2105
2017-08-08T08:11:38.459Z,1905
2017-08-08T08:12:38.512Z,1860
2017-08-08T08:13:38.543Z,1840
2017-08-08T08:14:38.527Z,1720
2017-08-08T08:15:38.524Z,1745
2017-08-08T08:16:38.563Z,1850
2017-08-08T08:17:38.577Z,1820
2017-08-08T08:18:38.918Z,1830
2017-08-08T08:19:38.308Z,1455
2017-08-08T08:20:38.913Z,1405
2017-08-08T08:21:38.962Z,1285
2017-08-08T08:22:38.664Z,1320
2017-08-08T08:23:38.962Z,1595
2017-08-08T08:24:38.732Z,1660
2017-08-08T08:25:38.724Z,1650
2017-08-08T08:26:39.021Z,1615
2017-08-08T08:27:39.033Z,1475
2017-08-08T08:28:38.759Z,1495
2017-08-08T08:29:39.079Z,1505
2017-08-08T08:30:38.758Z,1590
2017-08-08T08:31:38.758Z,1520
2017-08-08T08:32:39.098Z,1615
2017-08-08T08:33:39.123Z,1560
2017-08-08T08:34:38.501Z,1565
2017-08-08T08:35:38.213Z,1640
2017-08-08T08:36:39.149Z,1605
2017-08-08T08:37:38.854Z,1525
2017-08-08T08:38:38.549Z,1515
2017-08-08T08:39:38.588Z,1585
2017-08-08T08:40:38.593Z,1600
2017-08-08T08:41:38.914Z,1605
2017-08-08T08:42:39.240Z,1620
2017-08-08T08:43:39.234Z,1545
2017-08-08T08:44:39.213Z,1465
2017-08-08T08:45:39.247Z,1050
2017-08-08T08:46:39.265Z,640
2017-08-08T08:47:39.281Z,580
2017-08-08T08:48:39.287Z,560
2017-08-08T08:49:39.306Z,550
2017-08-08T08:50:39.320Z,550
2017-08-08T08:51:39.706Z,545
2017-08-08T08:52:39.320Z,550
2017-08-08T08:53:39.344Z,535
2017-08-08T08:54:38.699Z,525
2017-08-08T08:55:39.053Z,515
2017-08-08T08:56:39.339Z,505
2017-08-08T08:57:39.081Z,495
2017-08-08T08:58:38.775Z,485
2017-08-08T08:59:39.404Z,480
2017-08-08T09:00:39.406Z,475
2017-08-08T09:01:39.113Z,475
2017-08-08T09:02:39.417Z,470
2017-08-08T09:03:39.405Z,465
2017-08-08T09:04:39.406Z,465
2017-08-08T09:05:39.425Z,470
2017-08-08T09:06:39.427Z,485
2017-08-08T09:07:39.485Z,500
2017-08-08T09:08:39.441Z,510
2017-08-08T09:09:39.458Z,510
2017-08-08T09:10:39.440Z,510
2017-08-08T09:11:39.458Z,520
2017-08-08T09:12:39.149Z,545
2017-08-08T09:13:39.503Z,565
2017-08-08T09:14:39.505Z,565
2017-08-08T09:15:39.503Z,565
2017-08-08T09:16:39.764Z,565
2017-08-08T09:17:39.503Z,555
2017-08-08T09:18:39.201Z,545
2017-08-08T09:19:39.515Z,535
2017-08-08T09:20:39.225Z,525
2017-08-08T09:21:39.220Z,505
2017-08-08T09:22:39.524Z,490
2017-08-08T09:23:39.570Z,480
2017-08-08T09:24:39.509Z,490
2017-08-08T09:25:39.561Z,475
2017-08-08T09:26:39.516Z,490
2017-08-08T09:27:39.554Z,480
2017-08-08T09:28:39.552Z,470
2017-08-08T09:29:39.581Z,460
2017-08-08T09:30:39.239Z,445
2017-08-08T09:31:39.574Z,430
2017-08-08T09:32:39.244Z,390
2017-08-08T09:33:39.584Z,390
2017-08-08T09:34:39.584Z,395
2017-08-08T09:35:39.597Z,390
2017-08-08T09:36:38.676Z,375
2017-08-08T09:37:39.596Z,365
2017-08-08T09:38:39.598Z,360
2017-08-08T09:39:39.626Z,365
2017-08-08T09:40:39.274Z,350
2017-08-08T09:41:39.594Z,360
2017-08-08T09:42:39.621Z,355
2017-08-08T09:43:39.602Z,355
2017-08-08T09:44:39.302Z,360
2017-08-08T09:45:39.636Z,355
2017-08-08T09:46:39.599Z,340
2017-08-08T09:47:39.634Z,340
2017-08-08T09:48:39.613Z,360
2017-08-08T09:49:39.624Z,365
2017-08-08T09:50:39.624Z,375
2017-08-08T09:51:39.646Z,370
2017-08-08T09:52:39.364Z,365
2017-08-08T09:53:39.653Z,360
2017-08-08T09:54:39.640Z,355
2017-08-08T09:55:39.643Z,355
2017-08-08T09:56:39.373Z,360
2017-08-08T09:57:39.668Z,365
2017-08-08T09:58:39.346Z,380
2017-08-08T09:59:39.649Z,380
2017-08-08T10:00:39.709Z,385
2017-08-08T10:01:39.659Z,395
2017-08-08T10:02:39.058Z,410
2017-08-08T10:03:39.059Z,425
2017-08-08T10:04:39.689Z,435
2017-08-08T10:05:39.377Z,445
2017-08-08T10:06:39.683Z,450
2017-08-08T10:07:39.698Z,460
2017-08-08T10:08:39.699Z,475
2017-08-08T10:09:39.691Z,480
2017-08-08T10:10:39.692Z,495
2017-08-08T10:11:39.672Z,510
2017-08-08T10:12:39.387Z,520
2017-08-08T10:13:39.700Z,525
2017-08-08T10:14:39.706Z,525
2017-08-08T10:15:39.704Z,525
2017-08-08T10:16:39.721Z,520
2017-08-08T10:18:39.703Z,520
2017-08-08T10:19:39.691Z,525
2017-08-08T10:20:39.721Z,525
2017-08-08T10:21:39.934Z,525
2017-08-08T10:22:39.708Z,520
2017-08-08T10:23:39.710Z,520
2017-08-08T10:24:39.727Z,510
2017-08-08T10:25:39.432Z,505
2017-08-08T10:26:39.727Z,495
2017-08-08T10:27:39.754Z,485
2017-08-08T10:28:40.041Z,480
2017-08-08T10:29:39.763Z,465
2017-08-08T10:30:39.745Z,460
2017-08-08T10:31:39.776Z,460
2017-08-08T10:32:39.750Z,455
2017-08-08T10:33:39.759Z,455
2017-08-08T10:34:39.737Z,460
2017-08-08T10:35:39.764Z,455
2017-08-08T10:36:39.769Z,450
2017-08-08T10:37:49.485Z,450
2017-08-08T10:38:39.777Z,445
2017-08-08T10:39:39.793Z,450
2017-08-08T10:40:39.788Z,440
2017-08-08T10:41:39.808Z,440
2017-08-08T10:42:39.777Z,435
2017-08-08T10:43:39.806Z,435
2017-08-08T10:44:39.798Z,425
2017-08-08T10:45:39.494Z,405
2017-08-08T10:46:39.837Z,400
2017-08-08T10:47:39.805Z,395
2017-08-08T10:48:39.828Z,400
2017-08-08T10:49:39.801Z,410
2017-08-08T10:50:39.515Z,420
2017-08-08T10:51:39.511Z,430
2017-08-08T10:52:39.848Z,430
2017-08-08T10:53:39.850Z,425
2017-08-08T10:54:39.532Z,415
2017-08-08T10:55:39.827Z,395
2017-08-08T10:56:39.842Z,400
2017-08-08T10:57:39.518Z,405
2017-08-08T10:58:39.554Z,415
2017-08-08T10:59:39.529Z,440
2017-08-08T11:00:39.557Z,475
2017-08-08T11:01:39.557Z,510
2017-08-08T11:02:39.557Z,550
2017-08-08T11:03:39.557Z,565
2017-08-08T11:04:39.579Z,585
2017-08-08T11:05:39.860Z,595
2017-08-08T11:06:39.856Z,605
2017-08-08T11:07:39.576Z,600
2017-08-08T11:08:39.896Z,610
2017-08-08T11:09:39.596Z,605
2017-08-08T11:10:39.845Z,605
2017-08-08T11:11:39.884Z,605
2017-08-08T11:12:39.901Z,605
2017-08-08T11:13:39.913Z,590
2017-08-08T11:14:39.591Z,585
2017-08-08T11:15:39.621Z,580
2017-08-08T11:16:40.161Z,580
2017-08-08T11:17:39.948Z,585
2017-08-08T11:18:39.915Z,590
2017-08-08T11:19:40.146Z,600
2017-08-08T11:20:39.664Z,610
2017-08-08T11:21:39.650Z,620
2017-08-08T11:22:39.633Z,625
2017-08-08T11:23:39.654Z,625
2017-08-08T11:24:39.958Z,620
2017-08-08T11:25:39.968Z,630
2017-08-08T11:26:39.683Z,615
2017-08-08T11:27:39.665Z,605
2017-08-08T11:28:39.662Z,615
2017-08-08T11:29:39.058Z,635
2017-08-08T11:30:39.665Z,650
2017-08-08T11:31:39.069Z,650
2017-08-08T11:32:39.685Z,650
2017-08-08T11:33:39.696Z,645
2017-08-08T11:34:39.999Z,635
2017-08-08T11:35:40.023Z,630
2017-08-08T11:36:39.697Z,635
2017-08-08T11:37:40.031Z,655
2017-08-08T11:38:39.720Z,675
2017-08-08T11:39:39.741Z,695
2017-08-08T11:40:40.026Z,720
2017-08-08T11:41:39.984Z,730
2017-08-08T11:42:40.059Z,740
2017-08-08T11:43:40.040Z,750
2017-08-08T11:44:40.074Z,765
2017-08-08T11:45:40.056Z,780
2017-08-08T11:46:40.083Z,785
2017-08-08T11:47:40.087Z,795
2017-08-08T11:48:39.771Z,785
2017-08-08T11:49:39.786Z,780
2017-08-08T11:50:39.764Z,770
2017-08-08T11:57:46.318Z,745
2017-08-08T11:58:39.845Z,745
2017-08-08T11:59:40.144Z,745
2017-08-08T12:00:40.166Z,745
2017-08-08T12:01:39.836Z,745
2017-08-08T12:02:39.555Z,740
2017-08-08T12:03:40.170Z,730
2017-08-08T12:04:39.869Z,725
2017-08-08T12:05:39.877Z,710
2017-08-08T12:06:40.197Z,695
2017-08-08T12:07:39.272Z,685
2017-08-08T12:08:40.196Z,675
2017-08-08T12:09:40.218Z,670
2017-08-08T12:10:39.897Z,670
2017-08-08T12:11:39.908Z,665
2017-08-08T12:12:40.238Z,665
2017-08-08T12:13:40.513Z,665
2017-08-08T12:14:40.219Z,660
2017-08-08T12:15:39.939Z,660
2017-08-08T12:16:39.324Z,655
2017-08-08T12:17:39.956Z,655
2017-08-08T12:18:39.951Z,650
2017-08-08T12:19:40.273Z,650
2017-08-08T12:20:39.970Z,635
2017-08-08T12:21:40.293Z,635
2017-08-08T12:22:40.284Z,635
2017-08-08T12:23:39.983Z,635
2017-08-08T12:24:39.995Z,630
2017-08-08T12:25:39.676Z,630
2017-08-08T12:26:40.302Z,630
2017-08-08T12:27:40.009Z,620
2017-08-08T12:28:40.011Z,610
2017-08-08T12:29:39.715Z,580
2017-08-08T12:30:40.322Z,555
2017-08-08T12:31:40.043Z,530
2017-08-08T12:32:40.024Z,515
2017-08-08T12:33:39.719Z,505
2017-08-08T12:34:40.060Z,485
2017-08-08T12:35:39.763Z,465
2017-08-08T12:36:40.070Z,445
2017-08-08T12:37:39.758Z,425
2017-08-08T12:38:40.079Z,405
2017-08-08T12:39:40.385Z,400
2017-08-08T12:40:40.095Z,395
2017-08-08T12:41:40.106Z,390
2017-08-08T12:42:40.435Z,375
2017-08-08T12:43:40.120Z,375
2017-08-08T12:44:40.677Z,365
2017-08-08T12:45:40.118Z,360
2017-08-08T12:46:40.136Z,355
2017-08-08T12:47:40.148Z,350
2017-08-08T12:48:40.427Z,345
2017-08-08T12:49:40.452Z,340
2017-08-08T12:50:40.149Z,335
2017-08-08T12:51:40.174Z,325
2017-08-08T12:52:40.460Z,320
2017-08-08T12:53:40.158Z,320
2017-08-08T12:54:40.155Z,320
2017-08-08T12:55:40.159Z,320
2017-08-08T12:56:40.499Z,320
2017-08-08T12:57:40.534Z,315
2017-08-08T12:58:40.193Z,320
2017-08-08T12:59:40.167Z,320
2017-08-08T13:00:40.207Z,320
2017-08-08T13:01:40.502Z,315
2017-08-08T13:02:40.524Z,315
2017-08-08T13:03:40.194Z,315
2017-08-08T13:04:40.237Z,310
2017-08-08T13:05:40.212Z,305
2017-08-08T13:06:40.541Z,305
2017-08-08T13:07:40.213Z,295
2017-08-08T13:08:40.223Z,290
2017-08-08T13:09:40.248Z,280
2017-08-08T13:10:40.568Z,270
2017-08-08T13:11:39.932Z,270
2017-08-08T13:12:40.572Z,270
2017-08-08T13:13:40.573Z,265
2017-08-08T13:14:40.263Z,260
2017-08-08T13:15:40.507Z,265
2017-08-08T13:16:40.283Z,285
2017-08-08T13:17:40.594Z,290
2017-08-08T13:18:40.281Z,295
2017-08-08T13:19:40.289Z,305
2017-08-08T13:20:39.991Z,310
2017-08-08T13:21:40.282Z,320
2017-08-08T13:22:40.318Z,320
2017-08-08T13:23:40.283Z,325
2017-08-08T13:24:40.597Z,325
2017-08-08T13:25:40.593Z,310
2017-08-08T13:26:40.301Z,290
2017-08-08T13:27:40.650Z,285
2017-08-08T13:28:40.311Z,290
2017-08-08T13:29:40.320Z,295
2017-08-08T13:30:40.322Z,310
2017-08-08T13:31:40.354Z,335
2017-08-08T13:32:40.308Z,360
2017-08-08T13:33:40.350Z,370
2017-08-08T13:34:40.336Z,375
2017-08-08T13:35:40.682Z,370
2017-08-08T13:36:40.356Z,370
2017-08-08T13:37:40.650Z,360
2017-08-08T13:38:40.392Z,345
2017-08-08T13:39:40.348Z,335
2017-08-08T13:40:40.354Z,320
2017-08-08T13:41:40.354Z,305
2017-08-08T13:44:42.763Z,275
2017-08-08T13:45:40.379Z,270
2017-08-08T13:46:40.376Z,260
2017-08-08T13:47:40.967Z,250
2017-08-08T13:48:40.395Z,245
2017-08-08T13:49:40.722Z,240
2017-08-08T13:50:40.644Z,235
2017-08-08T13:51:40.754Z,235
2017-08-08T13:52:40.431Z,225
2017-08-08T13:53:40.410Z,225
2017-08-08T13:54:40.408Z,225
2017-08-08T13:55:40.399Z,220
2017-08-08T13:56:40.425Z,225
2017-08-08T13:57:40.722Z,220
2017-08-08T13:58:40.144Z,220
2017-08-08T13:59:40.746Z,220
2017-08-08T14:00:40.420Z,220
2017-08-08T14:01:40.426Z,220
2017-08-08T14:02:40.761Z,220
2017-08-08T14:03:40.750Z,220
2017-08-08T14:04:40.445Z,220
2017-08-08T14:05:40.432Z,215
2017-08-08T14:06:40.451Z,215
2017-08-08T14:07:40.502Z,210
2017-08-08T14:08:40.773Z,215
2017-08-08T14:09:40.461Z,215